sensor_id;sensor_type;location;lat;lon;timestamp;P1;durP1;ratioP1;P2;durP2;ratioP2
64832;SDS011;51290;45.060;38.948;2023-12-29T00:01:16;20.95;;;5.13;;
64832;SDS011;51290;45.060;38.948;2023-12-29T00:03:43;8.88;;;5.45;;
64832;SDS011;51290;45.060;38.948;2023-12-29T00:06:09;17.27;;;5.25;;
64832;SDS011;51290;45.060;38.948;2023-12-29T00:08:36;8.13;;;4.25;;
64832;SDS011;51290;45.060;38.948;2023-12-29T00:11:02;11.82;;;5.30;;
64832;SDS011;51290;45.060;38.948;2023-12-29T00:13:28;13.35;;;4.47;;
64832;SDS011;51290;45.060;38.948;2023-12-29T00:15:55;11.32;;;5.10;;
64832;SDS011;51290;45.060;38.948;2023-12-29T00:18:21;11.90;;;4.57;;
64832;SDS011;51290;45.060;38.948;2023-12-29T00:20:47;8.80;;;4.78;;
64832;SDS011;51290;45.060;38.948;2023-12-29T00:23:13;9.63;;;4.75;;
64832;SDS011;51290;45.060;38.948;2023-12-29T00:25:39;9.38;;;4.82;;
64832;SDS011;51290;45.060;38.948;2023-12-29T00:28:05;9.25;;;4.88;;
64832;SDS011;51290;45.060;38.948;2023-12-29T00:30:31;10.90;;;4.35;;
64832;SDS011;51290;45.060;38.948;2023-12-29T00:32:57;8.63;;;4.00;;
64832;SDS011;51290;45.060;38.948;2023-12-29T00:35:23;6.80;;;3.90;;
64832;SDS011;51290;45.060;38.948;2023-12-29T00:37:49;6.03;;;3.50;;
64832;SDS011;51290;45.060;38.948;2023-12-29T00:40:16;7.80;;;3.75;;
64832;SDS011;51290;45.060;38.948;2023-12-29T00:42:42;8.07;;;4.25;;
64832;SDS011;51290;45.060;38.948;2023-12-29T00:45:08;6.25;;;3.60;;
64832;SDS011;51290;45.060;38.948;2023-12-29T00:47:34;5.57;;;3.80;;
64832;SDS011;51290;45.060;38.948;2023-12-29T00:50:00;9.45;;;4.18;;
64832;SDS011;51290;45.060;38.948;2023-12-29T00:52:27;8.50;;;3.47;;
64832;SDS011;51290;45.060;38.948;2023-12-29T00:54:53;8.38;;;3.92;;
64832;SDS011;51290;45.060;38.948;2023-12-29T00:57:19;7.53;;;4.30;;
64832;SDS011;51290;45.060;38.948;2023-12-29T00:59:46;7.82;;;4.30;;
64832;SDS011;51290;45.060;38.948;2023-12-29T01:02:12;7.45;;;4.65;;
64832;SDS011;51290;45.060;38.948;2023-12-29T01:04:38;7.35;;;3.83;;
64832;SDS011;51290;45.060;38.948;2023-12-29T01:07:05;7.55;;;3.65;;
64832;SDS011;51290;45.060;38.948;2023-12-29T01:09:31;5.85;;;3.90;;
64832;SDS011;51290;45.060;38.948;2023-12-29T01:11:57;7.03;;;3.80;;
64832;SDS011;51290;45.060;38.948;2023-12-29T01:14:23;8.60;;;3.95;;
64832;SDS011;51290;45.060;38.948;2023-12-29T01:16:48;7.80;;;4.55;;
64832;SDS011;51290;45.060;38.948;2023-12-29T01:19:14;14.98;;;4.03;;
64832;SDS011;51290;45.060;38.948;2023-12-29T01:21:40;5.75;;;3.35;;
64832;SDS011;51290;45.060;38.948;2023-12-29T01:24:06;9.40;;;3.65;;
64832;SDS011;51290;45.060;38.948;2023-12-29T01:26:39;5.50;;;3.60;;
64832;SDS011;51290;45.060;38.948;2023-12-29T01:29:05;10.40;;;3.78;;
64832;SDS011;51290;45.060;38.948;2023-12-29T01:31:31;5.85;;;3.60;;
64832;SDS011;51290;45.060;38.948;2023-12-29T01:33:58;4.97;;;3.63;;
64832;SDS011;51290;45.060;38.948;2023-12-29T01:36:24;9.00;;;3.75;;
64832;SDS011;51290;45.060;38.948;2023-12-29T01:38:50;6.50;;;3.42;;
64832;SDS011;51290;45.060;38.948;2023-12-29T01:41:19;5.10;;;3.45;;
64832;SDS011;51290;45.060;38.948;2023-12-29T01:46:26;6.25;;;3.40;;
64832;SDS011;51290;45.060;38.948;2023-12-29T01:48:54;7.10;;;3.63;;
64832;SDS011;51290;45.060;38.948;2023-12-29T01:51:21;8.90;;;3.83;;
64832;SDS011;51290;45.060;38.948;2023-12-29T01:53:51;9.98;;;3.65;;
64832;SDS011;51290;45.060;38.948;2023-12-29T01:56:18;4.93;;;2.90;;
64832;SDS011;51290;45.060;38.948;2023-12-29T01:58:45;7.07;;;3.53;;
64832;SDS011;51290;45.060;38.948;2023-12-29T02:01:12;6.15;;;3.92;;
64832;SDS011;51290;45.060;38.948;2023-12-29T02:03:40;8.52;;;3.40;;
64832;SDS011;51290;45.060;38.948;2023-12-29T02:06:08;5.45;;;3.58;;
64832;SDS011;51290;45.060;38.948;2023-12-29T02:08:38;7.63;;;3.42;;
64832;SDS011;51290;45.060;38.948;2023-12-29T02:11:08;7.13;;;3.20;;
64832;SDS011;51290;45.060;38.948;2023-12-29T02:13:34;6.18;;;3.58;;
64832;SDS011;51290;45.060;38.948;2023-12-29T02:16:03;6.63;;;3.78;;
64832;SDS011;51290;45.060;38.948;2023-12-29T02:21:14;7.97;;;3.67;;
64832;SDS011;51290;45.060;38.948;2023-12-29T02:23:39;7.57;;;3.85;;
64832;SDS011;51290;45.060;38.948;2023-12-29T02:26:10;6.65;;;3.15;;
64832;SDS011;51290;45.060;38.948;2023-12-29T02:28:39;7.55;;;3.47;;
64832;SDS011;51290;45.060;38.948;2023-12-29T02:31:15;11.95;;;4.47;;
64832;SDS011;51290;45.060;38.948;2023-12-29T02:33:45;7.30;;;3.35;;
64832;SDS011;51290;45.060;38.948;2023-12-29T02:36:12;6.68;;;3.42;;
64832;SDS011;51290;45.060;38.948;2023-12-29T02:38:40;5.57;;;3.25;;
64832;SDS011;51290;45.060;38.948;2023-12-29T02:41:07;9.23;;;3.40;;
64832;SDS011;51290;45.060;38.948;2023-12-29T02:43:33;7.78;;;4.25;;
64832;SDS011;51290;45.060;38.948;2023-12-29T02:45:59;6.38;;;3.58;;
64832;SDS011;51290;45.060;38.948;2023-12-29T02:48:25;10.20;;;3.67;;
64832;SDS011;51290;45.060;38.948;2023-12-29T02:50:51;5.78;;;3.40;;
64832;SDS011;51290;45.060;38.948;2023-12-29T02:53:17;7.97;;;3.67;;
64832;SDS011;51290;45.060;38.948;2023-12-29T02:55:43;6.78;;;3.20;;
64832;SDS011;51290;45.060;38.948;2023-12-29T02:58:09;10.45;;;4.22;;
64832;SDS011;51290;45.060;38.948;2023-12-29T03:00:35;12.73;;;3.80;;
64832;SDS011;51290;45.060;38.948;2023-12-29T03:03:01;6.28;;;3.55;;
64832;SDS011;51290;45.060;38.948;2023-12-29T03:05:27;5.70;;;3.67;;
64832;SDS011;51290;45.060;38.948;2023-12-29T03:07:53;5.93;;;3.53;;
64832;SDS011;51290;45.060;38.948;2023-12-29T03:10:19;5.00;;;2.92;;
64832;SDS011;51290;45.060;38.948;2023-12-29T03:12:45;5.03;;;3.25;;
64832;SDS011;51290;45.060;38.948;2023-12-29T03:15:11;8.55;;;3.90;;
64832;SDS011;51290;45.060;38.948;2023-12-29T03:17:36;12.65;;;3.80;;
64832;SDS011;51290;45.060;38.948;2023-12-29T03:20:02;9.45;;;4.38;;
64832;SDS011;51290;45.060;38.948;2023-12-29T03:22:30;6.63;;;3.63;;
64832;SDS011;51290;45.060;38.948;2023-12-29T03:24:56;14.35;;;4.00;;
64832;SDS011;51290;45.060;38.948;2023-12-29T03:27:22;7.65;;;3.90;;
64832;SDS011;51290;45.060;38.948;2023-12-29T03:29:47;13.80;;;4.40;;
64832;SDS011;51290;45.060;38.948;2023-12-29T03:32:13;6.88;;;3.88;;
64832;SDS011;51290;45.060;38.948;2023-12-29T03:34:40;8.65;;;4.05;;
64832;SDS011;51290;45.060;38.948;2023-12-29T03:37:06;5.40;;;3.58;;
64832;SDS011;51290;45.060;38.948;2023-12-29T03:39:32;7.50;;;3.42;;
64832;SDS011;51290;45.060;38.948;2023-12-29T03:42:00;10.05;;;3.60;;
64832;SDS011;51290;45.060;38.948;2023-12-29T03:44:28;10.40;;;4.43;;
64832;SDS011;51290;45.060;38.948;2023-12-29T03:46:54;8.07;;;3.50;;
64832;SDS011;51290;45.060;38.948;2023-12-29T03:49:20;10.38;;;3.78;;
64832;SDS011;51290;45.060;38.948;2023-12-29T03:51:45;10.75;;;3.72;;
64832;SDS011;51290;45.060;38.948;2023-12-29T03:54:11;8.90;;;3.88;;
64832;SDS011;51290;45.060;38.948;2023-12-29T03:56:38;5.43;;;3.75;;
64832;SDS011;51290;45.060;38.948;2023-12-29T03:59:04;5.55;;;3.38;;
64832;SDS011;51290;45.060;38.948;2023-12-29T04:01:33;6.45;;;3.33;;
64832;SDS011;51290;45.060;38.948;2023-12-29T04:03:59;5.47;;;3.40;;
64832;SDS011;51290;45.060;38.948;2023-12-29T04:06:25;12.88;;;3.95;;
64832;SDS011;51290;45.060;38.948;2023-12-29T04:08:51;10.48;;;3.58;;
64832;SDS011;51290;45.060;38.948;2023-12-29T04:11:17;15.77;;;4.68;;
64832;SDS011;51290;45.060;38.948;2023-12-29T04:13:43;9.65;;;3.45;;
64832;SDS011;51290;45.060;38.948;2023-12-29T04:16:09;7.85;;;3.63;;
64832;SDS011;51290;45.060;38.948;2023-12-29T04:18:35;7.00;;;3.88;;
64832;SDS011;51290;45.060;38.948;2023-12-29T04:21:01;16.40;;;3.78;;
64832;SDS011;51290;45.060;38.948;2023-12-29T04:23:27;7.78;;;3.10;;
64832;SDS011;51290;45.060;38.948;2023-12-29T04:25:53;5.65;;;3.20;;
64832;SDS011;51290;45.060;38.948;2023-12-29T04:28:19;9.30;;;3.65;;
64832;SDS011;51290;45.060;38.948;2023-12-29T04:30:45;12.68;;;3.22;;
64832;SDS011;51290;45.060;38.948;2023-12-29T04:33:11;7.15;;;2.97;;
64832;SDS011;51290;45.060;38.948;2023-12-29T04:35:37;8.15;;;3.45;;
64832;SDS011;51290;45.060;38.948;2023-12-29T04:38:03;9.18;;;3.70;;
64832;SDS011;51290;45.060;38.948;2023-12-29T04:40:29;10.40;;;3.20;;
64832;SDS011;51290;45.060;38.948;2023-12-29T04:42:55;6.47;;;3.00;;
64832;SDS011;51290;45.060;38.948;2023-12-29T04:45:21;5.30;;;3.25;;
64832;SDS011;51290;45.060;38.948;2023-12-29T04:47:47;6.22;;;3.30;;
64832;SDS011;51290;45.060;38.948;2023-12-29T04:50:13;12.43;;;4.55;;
64832;SDS011;51290;45.060;38.948;2023-12-29T04:52:39;13.15;;;4.45;;
64832;SDS011;51290;45.060;38.948;2023-12-29T04:55:04;6.80;;;3.80;;
64832;SDS011;51290;45.060;38.948;2023-12-29T04:57:31;8.57;;;3.95;;
64832;SDS011;51290;45.060;38.948;2023-12-29T04:59:56;9.60;;;4.72;;
64832;SDS011;51290;45.060;38.948;2023-12-29T05:02:22;6.07;;;3.70;;
64832;SDS011;51290;45.060;38.948;2023-12-29T05:04:48;11.32;;;4.38;;
64832;SDS011;51290;45.060;38.948;2023-12-29T05:07:14;13.32;;;4.60;;
64832;SDS011;51290;45.060;38.948;2023-12-29T05:09:40;11.10;;;3.80;;
64832;SDS011;51290;45.060;38.948;2023-12-29T05:12:06;7.18;;;3.80;;
64832;SDS011;51290;45.060;38.948;2023-12-29T05:14:32;10.55;;;4.20;;
64832;SDS011;51290;45.060;38.948;2023-12-29T05:16:58;8.85;;;4.60;;
64832;SDS011;51290;45.060;38.948;2023-12-29T05:19:24;12.82;;;4.57;;
64832;SDS011;51290;45.060;38.948;2023-12-29T05:21:50;13.38;;;5.30;;
64832;SDS011;51290;45.060;38.948;2023-12-29T05:24:17;8.45;;;5.05;;
64832;SDS011;51290;45.060;38.948;2023-12-29T05:26:43;22.17;;;4.95;;
64832;SDS011;51290;45.060;38.948;2023-12-29T05:29:09;10.90;;;5.90;;
64832;SDS011;51290;45.060;38.948;2023-12-29T05:31:35;8.38;;;4.85;;
64832;SDS011;51290;45.060;38.948;2023-12-29T05:34:01;7.85;;;4.50;;
64832;SDS011;51290;45.060;38.948;2023-12-29T05:36:26;7.10;;;4.43;;
64832;SDS011;51290;45.060;38.948;2023-12-29T05:38:52;7.40;;;4.03;;
64832;SDS011;51290;45.060;38.948;2023-12-29T05:41:18;11.05;;;4.55;;
64832;SDS011;51290;45.060;38.948;2023-12-29T05:43:45;7.80;;;4.10;;
64832;SDS011;51290;45.060;38.948;2023-12-29T05:46:11;14.85;;;4.90;;
64832;SDS011;51290;45.060;38.948;2023-12-29T05:48:38;8.57;;;4.85;;
64832;SDS011;51290;45.060;38.948;2023-12-29T05:51:12;8.50;;;4.43;;
64832;SDS011;51290;45.060;38.948;2023-12-29T05:53:42;7.43;;;3.83;;
64832;SDS011;51290;45.060;38.948;2023-12-29T05:56:12;9.05;;;5.22;;
64832;SDS011;51290;45.060;38.948;2023-12-29T05:58:42;6.82;;;4.38;;
64832;SDS011;51290;45.060;38.948;2023-12-29T06:01:08;11.15;;;4.18;;
64832;SDS011;51290;45.060;38.948;2023-12-29T06:03:34;9.43;;;3.70;;
64832;SDS011;51290;45.060;38.948;2023-12-29T06:06:01;17.83;;;4.32;;
64832;SDS011;51290;45.060;38.948;2023-12-29T06:08:27;6.47;;;3.97;;
64832;SDS011;51290;45.060;38.948;2023-12-29T06:10:53;8.70;;;4.03;;
64832;SDS011;51290;45.060;38.948;2023-12-29T06:13:19;9.85;;;4.40;;
64832;SDS011;51290;45.060;38.948;2023-12-29T06:15:45;5.15;;;3.30;;
64832;SDS011;51290;45.060;38.948;2023-12-29T06:18:11;4.95;;;3.42;;
64832;SDS011;51290;45.060;38.948;2023-12-29T06:20:37;18.10;;;4.75;;
64832;SDS011;51290;45.060;38.948;2023-12-29T06:23:03;16.40;;;4.90;;
64832;SDS011;51290;45.060;38.948;2023-12-29T06:25:29;9.52;;;4.20;;
64832;SDS011;51290;45.060;38.948;2023-12-29T06:27:55;9.73;;;4.32;;
64832;SDS011;51290;45.060;38.948;2023-12-29T06:30:22;11.15;;;3.90;;
64832;SDS011;51290;45.060;38.948;2023-12-29T06:32:48;7.13;;;4.03;;
64832;SDS011;51290;45.060;38.948;2023-12-29T06:35:14;10.70;;;5.38;;
64832;SDS011;51290;45.060;38.948;2023-12-29T06:37:40;10.82;;;4.10;;
64832;SDS011;51290;45.060;38.948;2023-12-29T06:40:06;11.73;;;4.75;;
64832;SDS011;51290;45.060;38.948;2023-12-29T06:42:33;8.80;;;4.03;;
64832;SDS011;51290;45.060;38.948;2023-12-29T06:44:59;9.75;;;4.60;;
64832;SDS011;51290;45.060;38.948;2023-12-29T06:47:25;8.35;;;4.32;;
64832;SDS011;51290;45.060;38.948;2023-12-29T06:49:51;11.07;;;4.43;;
64832;SDS011;51290;45.060;38.948;2023-12-29T06:52:17;11.75;;;4.88;;
64832;SDS011;51290;45.060;38.948;2023-12-29T06:54:43;9.40;;;4.65;;
64832;SDS011;51290;45.060;38.948;2023-12-29T06:57:09;21.02;;;5.47;;
64832;SDS011;51290;45.060;38.948;2023-12-29T06:59:36;12.20;;;5.93;;
64832;SDS011;51290;45.060;38.948;2023-12-29T07:02:02;17.40;;;5.10;;
64832;SDS011;51290;45.060;38.948;2023-12-29T07:04:28;13.48;;;4.90;;
64832;SDS011;51290;45.060;38.948;2023-12-29T07:06:54;16.00;;;6.05;;
64832;SDS011;51290;45.060;38.948;2023-12-29T07:09:20;10.55;;;5.47;;
64832;SDS011;51290;45.060;38.948;2023-12-29T07:11:49;14.02;;;5.72;;
64832;SDS011;51290;45.060;38.948;2023-12-29T07:14:15;21.45;;;5.53;;
64832;SDS011;51290;45.060;38.948;2023-12-29T07:16:42;10.60;;;4.72;;
64832;SDS011;51290;45.060;38.948;2023-12-29T07:19:09;15.55;;;4.90;;
64832;SDS011;51290;45.060;38.948;2023-12-29T07:21:35;8.82;;;3.75;;
64832;SDS011;51290;45.060;38.948;2023-12-29T07:24:01;15.98;;;4.55;;
64832;SDS011;51290;45.060;38.948;2023-12-29T07:26:27;7.15;;;3.80;;
64832;SDS011;51290;45.060;38.948;2023-12-29T07:28:53;6.60;;;3.92;;
64832;SDS011;51290;45.060;38.948;2023-12-29T07:31:20;4.88;;;3.30;;
64832;SDS011;51290;45.060;38.948;2023-12-29T07:33:46;10.18;;;4.35;;
64832;SDS011;51290;45.060;38.948;2023-12-29T07:36:12;9.60;;;3.88;;
64832;SDS011;51290;45.060;38.948;2023-12-29T07:38:38;7.20;;;3.90;;
64832;SDS011;51290;45.060;38.948;2023-12-29T07:41:04;6.75;;;3.28;;
64832;SDS011;51290;45.060;38.948;2023-12-29T07:43:31;15.65;;;4.38;;
64832;SDS011;51290;45.060;38.948;2023-12-29T07:45:57;7.40;;;3.85;;
64832;SDS011;51290;45.060;38.948;2023-12-29T07:48:23;7.97;;;3.40;;
64832;SDS011;51290;45.060;38.948;2023-12-29T07:50:49;10.80;;;3.42;;
64832;SDS011;51290;45.060;38.948;2023-12-29T07:53:15;13.45;;;3.45;;
64832;SDS011;51290;45.060;38.948;2023-12-29T07:55:42;7.53;;;3.28;;
64832;SDS011;51290;45.060;38.948;2023-12-29T07:58:08;5.75;;;3.45;;
64832;SDS011;51290;45.060;38.948;2023-12-29T08:00:36;5.70;;;3.10;;
64832;SDS011;51290;45.060;38.948;2023-12-29T08:03:02;5.95;;;2.70;;
64832;SDS011;51290;45.060;38.948;2023-12-29T08:05:28;7.45;;;3.30;;
64832;SDS011;51290;45.060;38.948;2023-12-29T08:07:55;15.13;;;3.63;;
64832;SDS011;51290;45.060;38.948;2023-12-29T08:10:21;11.57;;;3.05;;
64832;SDS011;51290;45.060;38.948;2023-12-29T08:12:47;12.23;;;2.95;;
64832;SDS011;51290;45.060;38.948;2023-12-29T08:15:13;11.25;;;3.03;;
64832;SDS011;51290;45.060;38.948;2023-12-29T08:17:39;7.40;;;2.80;;
64832;SDS011;51290;45.060;38.948;2023-12-29T08:20:05;24.80;;;2.97;;
64832;SDS011;51290;45.060;38.948;2023-12-29T08:22:32;7.95;;;2.92;;
64832;SDS011;51290;45.060;38.948;2023-12-29T08:24:58;5.95;;;2.92;;
64832;SDS011;51290;45.060;38.948;2023-12-29T08:27:25;8.10;;;3.25;;
64832;SDS011;51290;45.060;38.948;2023-12-29T08:29:51;6.35;;;2.78;;
64832;SDS011;51290;45.060;38.948;2023-12-29T08:32:17;10.95;;;3.42;;
64832;SDS011;51290;45.060;38.948;2023-12-29T08:34:44;19.52;;;3.25;;
64832;SDS011;51290;45.060;38.948;2023-12-29T08:37:10;13.43;;;4.57;;
64832;SDS011;51290;45.060;38.948;2023-12-29T08:39:35;14.00;;;3.53;;
64832;SDS011;51290;45.060;38.948;2023-12-29T08:42:01;20.27;;;4.18;;
64832;SDS011;51290;45.060;38.948;2023-12-29T08:44:27;10.38;;;3.60;;
64832;SDS011;51290;45.060;38.948;2023-12-29T08:46:53;9.15;;;2.80;;
64832;SDS011;51290;45.060;38.948;2023-12-29T08:49:19;12.75;;;3.55;;
64832;SDS011;51290;45.060;38.948;2023-12-29T08:51:46;5.10;;;2.75;;
64832;SDS011;51290;45.060;38.948;2023-12-29T08:54:12;10.43;;;3.33;;
64832;SDS011;51290;45.060;38.948;2023-12-29T08:56:38;5.55;;;3.28;;
64832;SDS011;51290;45.060;38.948;2023-12-29T08:59:04;7.38;;;3.15;;
64832;SDS011;51290;45.060;38.948;2023-12-29T09:01:30;4.93;;;2.55;;
64832;SDS011;51290;45.060;38.948;2023-12-29T09:03:56;7.05;;;3.15;;
64832;SDS011;51290;45.060;38.948;2023-12-29T09:06:22;6.28;;;2.80;;
64832;SDS011;51290;45.060;38.948;2023-12-29T09:08:48;8.57;;;2.65;;
64832;SDS011;51290;45.060;38.948;2023-12-29T09:11:14;5.75;;;2.65;;
64832;SDS011;51290;45.060;38.948;2023-12-29T09:13:40;6.07;;;2.95;;
64832;SDS011;51290;45.060;38.948;2023-12-29T09:16:06;17.20;;;3.28;;
64832;SDS011;51290;45.060;38.948;2023-12-29T09:18:32;8.15;;;3.17;;
64832;SDS011;51290;45.060;38.948;2023-12-29T09:20:58;9.75;;;2.83;;
64832;SDS011;51290;45.060;38.948;2023-12-29T09:23:24;4.43;;;2.70;;
64832;SDS011;51290;45.060;38.948;2023-12-29T09:25:50;8.45;;;2.80;;
64832;SDS011;51290;45.060;38.948;2023-12-29T09:28:16;5.88;;;3.00;;
64832;SDS011;51290;45.060;38.948;2023-12-29T09:30:42;6.60;;;2.97;;
64832;SDS011;51290;45.060;38.948;2023-12-29T09:33:07;6.47;;;2.67;;
64832;SDS011;51290;45.060;38.948;2023-12-29T09:35:38;6.78;;;2.53;;
64832;SDS011;51290;45.060;38.948;2023-12-29T09:38:04;3.80;;;2.42;;
64832;SDS011;51290;45.060;38.948;2023-12-29T09:40:30;8.90;;;2.60;;
64832;SDS011;51290;45.060;38.948;2023-12-29T09:42:56;5.15;;;2.42;;
64832;SDS011;51290;45.060;38.948;2023-12-29T09:45:25;4.50;;;2.38;;
64832;SDS011;51290;45.060;38.948;2023-12-29T09:47:52;7.90;;;3.42;;
64832;SDS011;51290;45.060;38.948;2023-12-29T09:50:20;6.30;;;3.03;;
64832;SDS011;51290;45.060;38.948;2023-12-29T09:52:47;6.93;;;3.30;;
64832;SDS011;51290;45.060;38.948;2023-12-29T09:55:15;4.18;;;2.40;;
64832;SDS011;51290;45.060;38.948;2023-12-29T09:57:42;5.75;;;2.90;;
64832;SDS011;51290;45.060;38.948;2023-12-29T10:00:09;5.88;;;2.58;;
64832;SDS011;51290;45.060;38.948;2023-12-29T10:02:37;6.50;;;2.88;;
64832;SDS011;51290;45.060;38.948;2023-12-29T10:05:03;6.05;;;2.40;;
64832;SDS011;51290;45.060;38.948;2023-12-29T10:07:37;3.85;;;2.50;;
64832;SDS011;51290;45.060;38.948;2023-12-29T10:10:05;10.90;;;2.90;;
64832;SDS011;51290;45.060;38.948;2023-12-29T10:12:32;4.93;;;2.50;;
64832;SDS011;51290;45.060;38.948;2023-12-29T10:22:57;4.15;;;2.17;;
64832;SDS011;51290;45.060;38.948;2023-12-29T10:25:54;8.95;;;2.67;;
64832;SDS011;51290;45.060;38.948;2023-12-29T10:28:20;6.18;;;3.08;;
64832;SDS011;51290;45.060;38.948;2023-12-29T10:30:47;6.63;;;3.00;;
64832;SDS011;51290;45.060;38.948;2023-12-29T10:33:18;4.25;;;2.50;;
64832;SDS011;51290;45.060;38.948;2023-12-29T10:36:07;5.60;;;3.00;;
64832;SDS011;51290;45.060;38.948;2023-12-29T10:38:34;5.05;;;2.28;;
64832;SDS011;51290;45.060;38.948;2023-12-29T10:41:10;2.55;;;2.22;;
64832;SDS011;51290;45.060;38.948;2023-12-29T10:43:41;10.07;;;2.78;;
64832;SDS011;51290;45.060;38.948;2023-12-29T10:46:08;3.42;;;2.13;;
64832;SDS011;51290;45.060;38.948;2023-12-29T10:48:35;8.18;;;2.50;;
64832;SDS011;51290;45.060;38.948;2023-12-29T10:51:02;6.25;;;2.75;;
64832;SDS011;51290;45.060;38.948;2023-12-29T10:53:30;3.08;;;2.17;;
64832;SDS011;51290;45.060;38.948;2023-12-29T10:55:57;6.50;;;3.00;;
64832;SDS011;51290;45.060;38.948;2023-12-29T10:58:26;4.75;;;2.28;;
64832;SDS011;51290;45.060;38.948;2023-12-29T11:00:56;7.47;;;2.70;;
64832;SDS011;51290;45.060;38.948;2023-12-29T11:03:22;6.03;;;2.42;;
64832;SDS011;51290;45.060;38.948;2023-12-29T11:05:49;4.82;;;3.53;;
64832;SDS011;51290;45.060;38.948;2023-12-29T11:08:20;5.57;;;2.80;;
64832;SDS011;51290;45.060;38.948;2023-12-29T11:10:48;3.83;;;2.25;;
64832;SDS011;51290;45.060;38.948;2023-12-29T11:13:14;4.45;;;2.65;;
64832;SDS011;51290;45.060;38.948;2023-12-29T11:15:44;3.05;;;2.20;;
64832;SDS011;51290;45.060;38.948;2023-12-29T11:18:15;7.25;;;2.80;;
64832;SDS011;51290;45.060;38.948;2023-12-29T11:20:43;5.03;;;2.72;;
64832;SDS011;51290;45.060;38.948;2023-12-29T11:23:11;6.57;;;2.65;;
64832;SDS011;51290;45.060;38.948;2023-12-29T11:25:40;5.95;;;2.50;;
64832;SDS011;51290;45.060;38.948;2023-12-29T11:28:07;6.53;;;2.67;;
64832;SDS011;51290;45.060;38.948;2023-12-29T11:30:35;8.43;;;2.42;;
64832;SDS011;51290;45.060;38.948;2023-12-29T11:33:03;5.55;;;3.05;;
64832;SDS011;51290;45.060;38.948;2023-12-29T11:35:48;3.10;;;2.40;;
64832;SDS011;51290;45.060;38.948;2023-12-29T11:38:41;6.20;;;2.45;;
64832;SDS011;51290;45.060;38.948;2023-12-29T11:41:25;5.88;;;3.10;;
64832;SDS011;51290;45.060;38.948;2023-12-29T11:44:06;6.93;;;3.42;;
64832;SDS011;51290;45.060;38.948;2023-12-29T11:46:33;5.78;;;3.20;;
64832;SDS011;51290;45.060;38.948;2023-12-29T11:49:03;7.80;;;3.67;;
64832;SDS011;51290;45.060;38.948;2023-12-29T11:51:34;9.27;;;3.33;;
64832;SDS011;51290;45.060;38.948;2023-12-29T11:54:08;4.22;;;2.78;;
64832;SDS011;51290;45.060;38.948;2023-12-29T11:56:35;5.43;;;2.70;;
64832;SDS011;51290;45.060;38.948;2023-12-29T11:59:21;4.65;;;2.67;;
64832;SDS011;51290;45.060;38.948;2023-12-29T12:01:57;5.57;;;2.97;;
64832;SDS011;51290;45.060;38.948;2023-12-29T12:10:28;4.50;;;2.55;;
64832;SDS011;51290;45.060;38.948;2023-12-29T12:12:45;4.85;;;2.50;;
64832;SDS011;51290;45.060;38.948;2023-12-29T12:17:56;4.43;;;2.95;;
64832;SDS011;51290;45.060;38.948;2023-12-29T12:20:32;4.00;;;2.67;;
64832;SDS011;51290;45.060;38.948;2023-12-29T12:22:58;6.30;;;2.88;;
64832;SDS011;51290;45.060;38.948;2023-12-29T12:25:31;6.00;;;3.05;;
64832;SDS011;51290;45.060;38.948;2023-12-29T12:28:05;4.70;;;2.70;;
64832;SDS011;51290;45.060;38.948;2023-12-29T12:30:35;7.75;;;3.38;;
64832;SDS011;51290;45.060;38.948;2023-12-29T12:33:01;11.88;;;2.70;;
64832;SDS011;51290;45.060;38.948;2023-12-29T12:35:30;6.65;;;2.95;;
64832;SDS011;51290;45.060;38.948;2023-12-29T12:40:49;4.70;;;2.42;;
64832;SDS011;51290;45.060;38.948;2023-12-29T12:43:16;4.63;;;2.80;;
64832;SDS011;51290;45.060;38.948;2023-12-29T12:45:47;4.35;;;3.10;;
64832;SDS011;51290;45.060;38.948;2023-12-29T12:50:55;7.72;;;3.40;;
64832;SDS011;51290;45.060;38.948;2023-12-29T12:53:24;11.68;;;3.15;;
64832;SDS011;51290;45.060;38.948;2023-12-29T12:55:50;5.75;;;2.60;;
64832;SDS011;51290;45.060;38.948;2023-12-29T12:58:18;8.20;;;3.10;;
64832;SDS011;51290;45.060;38.948;2023-12-29T13:00:46;7.63;;;3.13;;
64832;SDS011;51290;45.060;38.948;2023-12-29T13:03:13;9.75;;;3.10;;
64832;SDS011;51290;45.060;38.948;2023-12-29T13:05:40;6.72;;;3.25;;
64832;SDS011;51290;45.060;38.948;2023-12-29T13:08:06;11.50;;;3.80;;
64832;SDS011;51290;45.060;38.948;2023-12-29T13:10:33;7.93;;;3.45;;
64832;SDS011;51290;45.060;38.948;2023-12-29T13:13:00;9.15;;;3.83;;
64832;SDS011;51290;45.060;38.948;2023-12-29T13:15:26;9.48;;;3.42;;
64832;SDS011;51290;45.060;38.948;2023-12-29T13:17:52;8.38;;;3.85;;
64832;SDS011;51290;45.060;38.948;2023-12-29T13:20:19;9.48;;;3.45;;
64832;SDS011;51290;45.060;38.948;2023-12-29T13:22:48;9.43;;;3.88;;
64832;SDS011;51290;45.060;38.948;2023-12-29T13:25:23;9.48;;;3.70;;
64832;SDS011;51290;45.060;38.948;2023-12-29T13:27:50;6.40;;;4.28;;
64832;SDS011;51290;45.060;38.948;2023-12-29T13:30:19;8.95;;;3.70;;
64832;SDS011;51290;45.060;38.948;2023-12-29T13:32:46;11.55;;;4.50;;
64832;SDS011;51290;45.060;38.948;2023-12-29T13:38:07;14.45;;;7.03;;
64832;SDS011;51290;45.060;38.948;2023-12-29T13:40:41;16.65;;;7.32;;
64832;SDS011;51290;45.060;38.948;2023-12-29T13:43:21;13.63;;;5.88;;
64832;SDS011;51290;45.060;38.948;2023-12-29T13:45:47;13.68;;;5.75;;
64832;SDS011;51290;45.060;38.948;2023-12-29T13:48:14;8.55;;;4.03;;
64832;SDS011;51290;45.060;38.948;2023-12-29T13:50:45;6.40;;;3.78;;
64832;SDS011;51290;45.060;38.948;2023-12-29T13:53:17;6.95;;;3.80;;
64832;SDS011;51290;45.060;38.948;2023-12-29T13:55:46;6.97;;;4.03;;
64832;SDS011;51290;45.060;38.948;2023-12-29T13:58:13;7.82;;;3.90;;
64832;SDS011;51290;45.060;38.948;2023-12-29T14:00:41;13.90;;;5.03;;
64832;SDS011;51290;45.060;38.948;2023-12-29T14:03:15;9.88;;;4.22;;
64832;SDS011;51290;45.060;38.948;2023-12-29T14:06:00;9.85;;;3.95;;
64832;SDS011;51290;45.060;38.948;2023-12-29T14:08:33;7.93;;;4.28;;
64832;SDS011;51290;45.060;38.948;2023-12-29T14:11:07;9.60;;;4.37;;
64832;SDS011;51290;45.060;38.948;2023-12-29T14:13:43;9.23;;;4.93;;
64832;SDS011;51290;45.060;38.948;2023-12-29T14:16:10;13.52;;;6.22;;
64832;SDS011;51290;45.060;38.948;2023-12-29T14:21:35;28.10;;;7.18;;
64832;SDS011;51290;45.060;38.948;2023-12-29T14:26:32;12.05;;;6.93;;
64832;SDS011;51290;45.060;38.948;2023-12-29T14:29:05;13.93;;;6.32;;
64832;SDS011;51290;45.060;38.948;2023-12-29T14:31:41;12.20;;;7.18;;
64832;SDS011;51290;45.060;38.948;2023-12-29T14:34:08;12.55;;;7.10;;
64832;SDS011;51290;45.060;38.948;2023-12-29T14:36:36;11.02;;;6.30;;
64832;SDS011;51290;45.060;38.948;2023-12-29T14:39:03;12.02;;;6.60;;
64832;SDS011;51290;45.060;38.948;2023-12-29T14:41:30;13.55;;;6.68;;
64832;SDS011;51290;45.060;38.948;2023-12-29T14:43:57;9.93;;;6.00;;
64832;SDS011;51290;45.060;38.948;2023-12-29T14:46:25;13.55;;;5.68;;
64832;SDS011;51290;45.060;38.948;2023-12-29T14:48:52;10.27;;;5.18;;
64832;SDS011;51290;45.060;38.948;2023-12-29T14:51:19;10.55;;;5.35;;
64832;SDS011;51290;45.060;38.948;2023-12-29T14:53:47;9.75;;;4.93;;
64832;SDS011;51290;45.060;38.948;2023-12-29T14:56:14;10.73;;;4.82;;
64832;SDS011;51290;45.060;38.948;2023-12-29T14:58:41;13.50;;;7.22;;
64832;SDS011;51290;45.060;38.948;2023-12-29T15:01:07;9.55;;;6.53;;
64832;SDS011;51290;45.060;38.948;2023-12-29T15:03:34;11.27;;;5.88;;
64832;SDS011;51290;45.060;38.948;2023-12-29T15:06:01;19.75;;;5.75;;
64832;SDS011;51290;45.060;38.948;2023-12-29T15:08:28;10.98;;;5.20;;